EWG5219 LIRP-EDDL
Flight info
| Callsign | EWG5219 |
|---|---|
| Flight time | 1h 30m |
| Altitude | 36000 |
| Route | BEROK DCT OSBUL DCT ABREG DCT LOKTA/N0435F350 DCT TEDGO DCT HAREM DCT LOHRE/N0439F360 Z850 ARPEG/N0395F240 Z850 ADEMI T854 DOMUX |
| Aircraft | A320/M-SDE2E3FGIJ1RWXYZ/HB1 |
Departure
| Time | 2026-05-04 17:40 |
|---|---|
| Airport | Pisa International Airport (LIRP) |
Arrival
| Time | 2026-05-04 19:10 |
|---|---|
| Airport | Düsseldorf Airport (EDDL) |
| Time | Latitude | Longitude | Altitude | Speed | Heading |
|---|---|---|---|---|---|
| 2026-05-04 17:14 | 43.69766 | 10.39976 | 15 ft | 0 kts | 9° |
| 2026-05-04 17:34 | 43.69719 | 10.39962 | 15 ft | 4 kts | 25° |
| 2026-05-04 17:34 | 43.69699 | 10.39942 | 19 ft | 4 kts | 64° |
| 2026-05-04 17:35 | 43.69696 | 10.39913 | 18 ft | 0 kts | 99° |
| 2026-05-04 17:36 | 43.69696 | 10.39914 | 15 ft | 0 kts | 99° |
| 2026-05-04 17:37 | 43.69693 | 10.39938 | 18 ft | 3 kts | 99° |
| 2026-05-04 17:37 | 43.69689 | 10.39967 | 15 ft | 3 kts | 99° |
| 2026-05-04 17:37 | 43.69681 | 10.40026 | 16 ft | 7 kts | 106° |
| 2026-05-04 17:37 | 43.69649 | 10.40053 | 15 ft | 6 kts | 169° |
| 2026-05-04 17:38 | 43.69601 | 10.40063 | 15 ft | 8 kts | 172° |
| 2026-05-04 17:38 | 43.69541 | 10.40075 | 16 ft | 9 kts | 171° |
| 2026-05-04 17:38 | 43.69498 | 10.40084 | 17 ft | 0 kts | 171° |
| 2026-05-04 17:38 | 43.69486 | 10.40087 | 17 ft | 6 kts | 171° |
| 2026-05-04 17:39 | 43.69356 | 10.40107 | 23 ft | 10 kts | 215° |
| 2026-05-04 17:39 | 43.69341 | 10.40092 | 23 ft | 0 kts | 217° |
| 2026-05-04 17:39 | 43.69277 | 10.40025 | 23 ft | 42 kts | 217° |
| 2026-05-04 17:40 | 43.68853 | 10.39589 | 18 ft | 107 kts | 217° |
| 2026-05-04 17:40 | 43.68115 | 10.38823 | 60 ft | 152 kts | 217° |
| 2026-05-04 17:40 | 43.67276 | 10.37945 | 732 ft | 153 kts | 214° |
| 2026-05-04 17:40 | 43.66394 | 10.37077 | 1368 ft | 158 kts | 211° |
| 2026-05-04 17:41 | 43.65467 | 10.36189 | 1887 ft | 174 kts | 211° |
| 2026-05-04 17:41 | 43.64405 | 10.35177 | 2240 ft | 197 kts | 211° |
| 2026-05-04 17:41 | 43.63300 | 10.33962 | 2848 ft | 212 kts | 228° |
| 2026-05-04 17:41 | 43.62780 | 10.32009 | 3577 ft | 229 kts | 269° |
| 2026-05-04 17:42 | 43.63276 | 10.29908 | 4410 ft | 236 kts | 300° |
| 2026-05-04 17:42 | 43.64249 | 10.28067 | 5290 ft | 238 kts | 308° |
| 2026-05-04 17:42 | 43.65336 | 10.26318 | 6095 ft | 241 kts | 310° |
| 2026-05-04 17:42 | 43.66492 | 10.24622 | 6894 ft | 245 kts | 323° |
| 2026-05-04 17:43 | 43.68052 | 10.23696 | 7633 ft | 249 kts | 353° |
| 2026-05-04 17:43 | 43.69766 | 10.23907 | 8382 ft | 249 kts | 23° |
| 2026-05-04 17:43 | 43.71234 | 10.25147 | 9163 ft | 249 kts | 40° |
| 2026-05-04 17:43 | 43.72611 | 10.26587 | 9936 ft | 252 kts | 40° |
| 2026-05-04 17:44 | 43.74030 | 10.28056 | 10670 ft | 257 kts | 35° |
| 2026-05-04 17:44 | 43.75664 | 10.29187 | 11138 ft | 273 kts | 22° |
| 2026-05-04 17:44 | 43.77516 | 10.30166 | 11452 ft | 297 kts | 21° |
| 2026-05-04 17:44 | 43.79530 | 10.31209 | 11716 ft | 321 kts | 21° |
| 2026-05-04 17:45 | 43.81671 | 10.32313 | 11928 ft | 344 kts | 20° |
| 2026-05-04 17:45 | 43.83958 | 10.33494 | 12429 ft | 356 kts | 20° |
| 2026-05-04 17:45 | 43.86301 | 10.34706 | 13149 ft | 361 kts | 19° |
| 2026-05-04 17:45 | 43.88739 | 10.35545 | 13910 ft | 362 kts | 4° |
| 2026-05-04 17:46 | 43.91253 | 10.35496 | 14590 ft | 362 kts | 352° |
| 2026-05-04 17:46 | 43.93776 | 10.35104 | 15261 ft | 366 kts | 351° |
| 2026-05-04 17:46 | 43.96319 | 10.34702 | 15935 ft | 369 kts | 351° |
| 2026-05-04 17:46 | 43.98862 | 10.34392 | 16582 ft | 375 kts | 356° |
| 2026-05-04 17:47 | 44.01496 | 10.34471 | 17201 ft | 380 kts | 359° |
| 2026-05-04 17:47 | 44.04146 | 10.34588 | 17804 ft | 384 kts | 359° |
| 2026-05-04 17:47 | 44.06830 | 10.34714 | 18408 ft | 387 kts | 360° |
| 2026-05-04 17:47 | 44.09545 | 10.34843 | 18951 ft | 391 kts | 359° |
| 2026-05-04 17:48 | 44.12276 | 10.34970 | 19490 ft | 394 kts | 359° |
| 2026-05-04 17:48 | 44.15034 | 10.35093 | 20042 ft | 397 kts | 359° |
| 2026-05-04 17:48 | 44.17769 | 10.35061 | 20550 ft | 399 kts | 354° |
| 2026-05-04 17:48 | 44.20563 | 10.34812 | 21061 ft | 402 kts | 354° |
| 2026-05-04 17:49 | 44.23370 | 10.34559 | 21576 ft | 405 kts | 354° |
| 2026-05-04 17:49 | 44.26199 | 10.34302 | 22098 ft | 409 kts | 354° |
| 2026-05-04 17:49 | 44.29012 | 10.34048 | 22579 ft | 412 kts | 354° |
| 2026-05-04 17:49 | 44.31885 | 10.33793 | 23072 ft | 415 kts | 354° |
| 2026-05-04 17:50 | 44.34783 | 10.33541 | 23570 ft | 418 kts | 354° |
| 2026-05-04 17:50 | 44.37695 | 10.33288 | 23985 ft | 421 kts | 354° |
| 2026-05-04 17:50 | 44.40626 | 10.33033 | 24382 ft | 424 kts | 354° |
| 2026-05-04 17:50 | 44.43550 | 10.32776 | 24802 ft | 425 kts | 353° |
| 2026-05-04 17:51 | 44.46510 | 10.32513 | 25222 ft | 427 kts | 353° |
| 2026-05-04 17:51 | 44.49483 | 10.32246 | 25603 ft | 429 kts | 353° |
| 2026-05-04 17:51 | 44.52470 | 10.31977 | 25994 ft | 431 kts | 353° |
| 2026-05-04 17:51 | 44.55478 | 10.31709 | 26356 ft | 434 kts | 353° |
| 2026-05-04 17:52 | 44.58496 | 10.31440 | 26720 ft | 436 kts | 353° |
| 2026-05-04 17:52 | 44.61545 | 10.31167 | 27039 ft | 438 kts | 353° |
| 2026-05-04 17:52 | 44.64558 | 10.30898 | 27399 ft | 440 kts | 353° |
| 2026-05-04 17:52 | 44.67626 | 10.30625 | 27768 ft | 442 kts | 353° |
| 2026-05-04 17:53 | 44.70708 | 10.30352 | 28121 ft | 444 kts | 353° |
| 2026-05-04 17:53 | 44.73808 | 10.30078 | 28491 ft | 447 kts | 353° |
| 2026-05-04 17:53 | 44.76921 | 10.29809 | 28824 ft | 449 kts | 353° |
| 2026-05-04 17:53 | 44.80049 | 10.29528 | 29170 ft | 451 kts | 351° |
| 2026-05-04 17:54 | 44.83096 | 10.28827 | 29447 ft | 450 kts | 342° |
| 2026-05-04 17:54 | 44.86087 | 10.27508 | 29738 ft | 449 kts | 337° |
| 2026-05-04 17:54 | 44.89044 | 10.26054 | 30048 ft | 452 kts | 337° |
| 2026-05-04 17:54 | 44.92028 | 10.24592 | 30334 ft | 453 kts | 337° |
| 2026-05-04 17:55 | 44.95023 | 10.23128 | 30593 ft | 456 kts | 338° |
| 2026-05-04 17:55 | 44.97992 | 10.21679 | 30841 ft | 458 kts | 337° |
| 2026-05-04 17:55 | 45.01020 | 10.20201 | 31125 ft | 460 kts | 337° |
| 2026-05-04 17:55 | 45.04042 | 10.18725 | 31479 ft | 459 kts | 337° |
| 2026-05-04 17:56 | 45.07057 | 10.17245 | 31856 ft | 457 kts | 337° |
| 2026-05-04 17:56 | 45.10056 | 10.15762 | 32230 ft | 456 kts | 336° |
| 2026-05-04 17:56 | 45.13004 | 10.14299 | 32607 ft | 454 kts | 337° |
| 2026-05-04 17:56 | 45.15986 | 10.12816 | 32970 ft | 453 kts | 336° |
| 2026-05-04 17:57 | 45.18972 | 10.11333 | 33333 ft | 452 kts | 336° |
| 2026-05-04 17:57 | 45.21944 | 10.09867 | 33700 ft | 452 kts | 336° |
| 2026-05-04 17:57 | 45.24919 | 10.08409 | 34062 ft | 451 kts | 336° |
| 2026-05-04 17:57 | 45.27844 | 10.06976 | 34394 ft | 450 kts | 336° |
| 2026-05-04 17:58 | 45.30806 | 10.05518 | 34693 ft | 449 kts | 336° |
| 2026-05-04 17:58 | 45.33592 | 10.04139 | 34983 ft | 449 kts | 336° |
| 2026-05-04 17:58 | 45.36561 | 10.02663 | 35259 ft | 448 kts | 336° |
| 2026-05-04 17:58 | 45.39502 | 10.01199 | 35548 ft | 448 kts | 336° |
| 2026-05-04 17:59 | 45.42438 | 9.99735 | 35832 ft | 447 kts | 336° |
| 2026-05-04 17:59 | 45.45371 | 9.98271 | 36024 ft | 446 kts | 336° |
| 2026-05-04 18:00 | 45.54175 | 9.93887 | 36070 ft | 445 kts | 336° |
| 2026-05-04 18:00 | 45.60029 | 9.90965 | 36065 ft | 446 kts | 336° |
| 2026-05-04 18:01 | 45.65892 | 9.88023 | 36057 ft | 446 kts | 336° |
| 2026-05-04 18:01 | 45.71717 | 9.85096 | 36105 ft | 445 kts | 336° |
| 2026-05-04 18:02 | 45.80520 | 9.80663 | 36108 ft | 448 kts | 336° |
| 2026-05-04 18:02 | 45.86411 | 9.77696 | 36119 ft | 448 kts | 336° |
| 2026-05-04 18:03 | 45.92294 | 9.74719 | 36133 ft | 448 kts | 336° |
| 2026-05-04 18:03 | 45.98178 | 9.71733 | 36129 ft | 448 kts | 337° |
| 2026-05-04 18:04 | 46.04023 | 9.68763 | 36129 ft | 448 kts | 336° |
| 2026-05-04 18:05 | 46.12851 | 9.64266 | 36138 ft | 448 kts | 336° |
| 2026-05-04 18:05 | 46.18732 | 9.61263 | 36143 ft | 449 kts | 336° |
| 2026-05-04 18:06 | 46.27565 | 9.56741 | 36138 ft | 449 kts | 337° |
| 2026-05-04 18:06 | 46.33648 | 9.54550 | 36137 ft | 454 kts | 349° |
| 2026-05-04 18:07 | 46.39888 | 9.53382 | 36139 ft | 455 kts | 349° |
| 2026-05-04 18:07 | 46.46169 | 9.52208 | 36117 ft | 455 kts | 349° |
| 2026-05-04 18:08 | 46.52452 | 9.51008 | 36118 ft | 455 kts | 349° |
| 2026-05-04 18:08 | 46.58727 | 9.49788 | 36121 ft | 455 kts | 349° |
| 2026-05-04 18:09 | 46.71303 | 9.47331 | 36105 ft | 456 kts | 349° |
| 2026-05-04 18:10 | 46.77600 | 9.46076 | 36077 ft | 456 kts | 349° |
| 2026-05-04 18:10 | 46.83868 | 9.44850 | 36059 ft | 457 kts | 349° |
| 2026-05-04 18:11 | 46.90184 | 9.43621 | 36060 ft | 457 kts | 349° |
| 2026-05-04 18:11 | 46.96496 | 9.42378 | 36046 ft | 457 kts | 349° |
| 2026-05-04 18:12 | 47.02763 | 9.41139 | 36030 ft | 458 kts | 349° |
| 2026-05-04 18:12 | 47.09095 | 9.39893 | 36018 ft | 459 kts | 349° |
| 2026-05-04 18:13 | 47.15428 | 9.38652 | 36018 ft | 459 kts | 349° |
| 2026-05-04 18:14 | 47.24924 | 9.36766 | 36005 ft | 459 kts | 349° |
| 2026-05-04 18:14 | 47.31219 | 9.35513 | 36004 ft | 459 kts | 349° |
| 2026-05-04 18:15 | 47.43899 | 9.33003 | 36009 ft | 460 kts | 349° |
| 2026-05-04 18:16 | 47.50258 | 9.31727 | 36006 ft | 461 kts | 349° |
| 2026-05-04 18:16 | 47.55538 | 9.30663 | 36002 ft | 461 kts | 349° |
| 2026-05-04 18:17 | 47.65022 | 9.28757 | 35997 ft | 461 kts | 349° |
| 2026-05-04 18:18 | 47.74574 | 9.26840 | 35991 ft | 462 kts | 349° |
| 2026-05-04 18:18 | 47.80927 | 9.25555 | 35988 ft | 463 kts | 349° |
| 2026-05-04 18:19 | 47.90505 | 9.23611 | 35990 ft | 463 kts | 349° |
| 2026-05-04 18:19 | 47.96748 | 9.22362 | 35992 ft | 462 kts | 349° |
| 2026-05-04 18:20 | 48.03095 | 9.21058 | 35984 ft | 462 kts | 349° |
| 2026-05-04 18:20 | 48.09484 | 9.19730 | 35984 ft | 463 kts | 349° |
| 2026-05-04 18:21 | 48.15889 | 9.18539 | 35991 ft | 466 kts | 355° |
| 2026-05-04 18:21 | 48.22377 | 9.19214 | 35989 ft | 469 kts | 5° |
| 2026-05-04 18:22 | 48.28880 | 9.20328 | 35996 ft | 469 kts | 4° |
| 2026-05-04 18:22 | 48.35379 | 9.21416 | 35991 ft | 470 kts | 4° |
| 2026-05-04 18:23 | 48.41844 | 9.22493 | 35987 ft | 470 kts | 4° |
| 2026-05-04 18:23 | 48.48362 | 9.23592 | 35986 ft | 470 kts | 4° |
| 2026-05-04 18:24 | 48.54870 | 9.24706 | 35976 ft | 470 kts | 4° |
| 2026-05-04 18:24 | 48.61380 | 9.25820 | 35975 ft | 470 kts | 4° |
| 2026-05-04 18:25 | 48.67884 | 9.26868 | 35975 ft | 470 kts | 4° |
| 2026-05-04 18:25 | 48.74402 | 9.27857 | 35974 ft | 470 kts | 3° |
| 2026-05-04 18:26 | 48.80873 | 9.28806 | 35976 ft | 470 kts | 3° |
| 2026-05-04 18:26 | 48.87330 | 9.29781 | 35979 ft | 470 kts | 4° |
| 2026-05-04 18:27 | 48.93843 | 9.30791 | 35987 ft | 470 kts | 4° |
| 2026-05-04 18:27 | 49.00315 | 9.31799 | 35982 ft | 470 kts | 4° |
| 2026-05-04 18:28 | 49.06828 | 9.32809 | 35981 ft | 470 kts | 3° |
| 2026-05-04 18:28 | 49.13336 | 9.33811 | 35980 ft | 470 kts | 3° |
| 2026-05-04 18:29 | 49.19848 | 9.34818 | 35980 ft | 470 kts | 3° |
| 2026-05-04 18:29 | 49.26341 | 9.35837 | 35980 ft | 470 kts | 3° |
| 2026-05-04 18:30 | 49.36121 | 9.37384 | 35983 ft | 472 kts | 4° |
| 2026-05-04 18:31 | 49.42653 | 9.38449 | 35987 ft | 472 kts | 3° |
| 2026-05-04 18:31 | 49.49187 | 9.39482 | 35981 ft | 472 kts | 3° |
| 2026-05-04 18:32 | 49.55681 | 9.40494 | 35980 ft | 472 kts | 3° |
| 2026-05-04 18:32 | 49.62212 | 9.41539 | 35979 ft | 472 kts | 3° |
| 2026-05-04 18:33 | 49.68083 | 9.42488 | 35980 ft | 471 kts | 3° |
| 2026-05-04 18:33 | 49.74424 | 9.43502 | 35981 ft | 471 kts | 3° |
| 2026-05-04 18:34 | 49.80948 | 9.44541 | 35990 ft | 471 kts | 3° |
| 2026-05-04 18:34 | 49.87485 | 9.45571 | 35980 ft | 471 kts | 3° |
| 2026-05-04 18:35 | 49.94017 | 9.46610 | 35980 ft | 471 kts | 3° |
| 2026-05-04 18:35 | 50.00537 | 9.47511 | 35977 ft | 468 kts | 356° |
| 2026-05-04 18:36 | 50.06843 | 9.45942 | 35976 ft | 458 kts | 336° |
| 2026-05-04 18:36 | 50.12418 | 9.41442 | 35978 ft | 447 kts | 318° |
| 2026-05-04 18:37 | 50.17238 | 9.35349 | 35976 ft | 446 kts | 316° |
| 2026-05-04 18:37 | 50.22053 | 9.29236 | 35977 ft | 446 kts | 316° |
| 2026-05-04 18:38 | 50.26881 | 9.23121 | 35982 ft | 446 kts | 316° |
| 2026-05-04 18:38 | 50.31681 | 9.17018 | 35982 ft | 447 kts | 316° |
| 2026-05-04 18:39 | 50.36501 | 9.10856 | 35976 ft | 447 kts | 316° |
| 2026-05-04 18:39 | 50.41306 | 9.04697 | 35976 ft | 447 kts | 315° |
| 2026-05-04 18:40 | 50.46114 | 8.98512 | 35981 ft | 447 kts | 315° |
| 2026-05-04 18:40 | 50.50895 | 8.92363 | 35970 ft | 447 kts | 315° |
| 2026-05-04 18:41 | 50.55736 | 8.86224 | 35974 ft | 447 kts | 317° |
| 2026-05-04 18:41 | 50.60687 | 8.80326 | 35972 ft | 447 kts | 318° |
| 2026-05-04 18:42 | 50.65664 | 8.74464 | 35979 ft | 446 kts | 318° |
| 2026-05-04 18:42 | 50.70581 | 8.68569 | 35604 ft | 447 kts | 317° |
| 2026-05-04 18:42 | 50.73051 | 8.65572 | 34766 ft | 450 kts | 317° |
| 2026-05-04 18:43 | 50.75548 | 8.62537 | 33915 ft | 454 kts | 317° |
| 2026-05-04 18:43 | 50.78059 | 8.59485 | 32953 ft | 457 kts | 317° |
| 2026-05-04 18:43 | 50.80566 | 8.56442 | 32008 ft | 450 kts | 317° |
| 2026-05-04 18:43 | 50.83045 | 8.53440 | 31121 ft | 449 kts | 317° |
| 2026-05-04 18:44 | 50.85529 | 8.50418 | 30252 ft | 451 kts | 317° |
| 2026-05-04 18:44 | 50.87180 | 8.48401 | 29618 ft | 452 kts | 317° |
| 2026-05-04 18:44 | 50.90485 | 8.44359 | 28346 ft | 453 kts | 317° |
| 2026-05-04 18:44 | 50.92986 | 8.41305 | 27420 ft | 453 kts | 318° |
| 2026-05-04 18:45 | 50.95070 | 8.38755 | 26659 ft | 452 kts | 318° |
| 2026-05-04 18:45 | 50.97553 | 8.35696 | 25776 ft | 452 kts | 318° |
| 2026-05-04 18:45 | 51.00027 | 8.32654 | 25063 ft | 448 kts | 319° |
| 2026-05-04 18:45 | 51.02562 | 8.29880 | 24911 ft | 434 kts | 327° |
| 2026-05-04 18:46 | 51.05159 | 8.27603 | 24786 ft | 417 kts | 327° |
| 2026-05-04 18:46 | 51.07584 | 8.25466 | 24663 ft | 390 kts | 327° |
| 2026-05-04 18:46 | 51.09913 | 8.23397 | 24381 ft | 369 kts | 326° |
| 2026-05-04 18:46 | 51.12094 | 8.21443 | 23865 ft | 363 kts | 326° |
| 2026-05-04 18:47 | 51.14275 | 8.19478 | 23494 ft | 358 kts | 326° |
| 2026-05-04 18:47 | 51.16450 | 8.17516 | 22693 ft | 364 kts | 327° |
| 2026-05-04 18:47 | 51.18643 | 8.15544 | 22134 ft | 356 kts | 327° |
| 2026-05-04 18:47 | 51.20769 | 8.13647 | 21795 ft | 340 kts | 327° |
| 2026-05-04 18:48 | 51.22778 | 8.11862 | 21637 ft | 320 kts | 327° |
| 2026-05-04 18:48 | 51.24706 | 8.10145 | 21441 ft | 313 kts | 327° |
| 2026-05-04 18:48 | 51.26594 | 8.08447 | 21153 ft | 310 kts | 327° |
| 2026-05-04 18:48 | 51.28447 | 8.06775 | 20837 ft | 309 kts | 327° |
| 2026-05-04 18:49 | 51.30317 | 8.05090 | 20524 ft | 308 kts | 327° |
| 2026-05-04 18:49 | 51.32181 | 8.03409 | 20204 ft | 307 kts | 327° |
| 2026-05-04 18:49 | 51.34047 | 8.01734 | 19873 ft | 306 kts | 327° |
| 2026-05-04 18:49 | 51.35900 | 8.00070 | 19568 ft | 306 kts | 327° |
| 2026-05-04 18:50 | 51.37750 | 7.98405 | 19262 ft | 305 kts | 327° |
| 2026-05-04 18:50 | 51.39599 | 7.96732 | 18958 ft | 304 kts | 327° |
| 2026-05-04 18:50 | 51.41440 | 7.95068 | 18653 ft | 303 kts | 327° |
| 2026-05-04 18:50 | 51.43243 | 7.93331 | 18350 ft | 300 kts | 319° |
| 2026-05-04 18:51 | 51.44730 | 7.91126 | 17864 ft | 292 kts | 305° |
| 2026-05-04 18:51 | 51.45835 | 7.88425 | 17372 ft | 289 kts | 291° |
| 2026-05-04 18:51 | 51.46513 | 7.85421 | 17040 ft | 284 kts | 278° |
| 2026-05-04 18:51 | 51.46756 | 7.82320 | 16729 ft | 278 kts | 266° |
| 2026-05-04 18:52 | 51.46646 | 7.79250 | 16419 ft | 276 kts | 265° |
| 2026-05-04 18:52 | 51.46851 | 7.76929 | 16183 ft | 281 kts | 283° |
| 2026-05-04 18:52 | 51.47778 | 7.74194 | 15883 ft | 289 kts | 309° |
| 2026-05-04 18:52 | 51.49338 | 7.72137 | 15586 ft | 292 kts | 322° |
| 2026-05-04 18:53 | 51.51025 | 7.70299 | 15296 ft | 292 kts | 322° |
| 2026-05-04 18:53 | 51.52469 | 7.68079 | 15004 ft | 286 kts | 301° |
| 2026-05-04 18:53 | 51.53266 | 7.65222 | 14739 ft | 278 kts | 278° |
| 2026-05-04 18:53 | 51.53338 | 7.62181 | 14505 ft | 269 kts | 257° |
| 2026-05-04 18:54 | 51.52734 | 7.59390 | 14262 ft | 263 kts | 237° |
| 2026-05-04 18:54 | 51.51577 | 7.57163 | 14051 ft | 258 kts | 217° |
| 2026-05-04 18:54 | 51.50049 | 7.55760 | 13968 ft | 256 kts | 198° |
| 2026-05-04 18:54 | 51.48300 | 7.55176 | 13977 ft | 258 kts | 188° |
| 2026-05-04 18:55 | 51.46524 | 7.54752 | 13978 ft | 258 kts | 188° |
| 2026-05-04 18:55 | 51.43098 | 7.53101 | 13963 ft | 259 kts | 207° |
| 2026-05-04 18:55 | 51.41589 | 7.51509 | 13973 ft | 260 kts | 218° |
| 2026-05-04 18:56 | 51.40315 | 7.49502 | 13985 ft | 261 kts | 229° |
| 2026-05-04 18:56 | 51.39263 | 7.47118 | 13988 ft | 263 kts | 234° |
| 2026-05-04 18:56 | 51.38256 | 7.44675 | 13982 ft | 263 kts | 234° |
| 2026-05-04 18:56 | 51.37242 | 7.42238 | 13992 ft | 262 kts | 234° |
| 2026-05-04 18:57 | 51.36225 | 7.39804 | 13987 ft | 262 kts | 234° |
| 2026-05-04 18:57 | 51.35211 | 7.37378 | 13990 ft | 263 kts | 234° |
| 2026-05-04 18:57 | 51.34199 | 7.34949 | 13974 ft | 262 kts | 234° |
| 2026-05-04 18:57 | 51.33176 | 7.32497 | 13609 ft | 267 kts | 234° |
| 2026-05-04 18:58 | 51.32163 | 7.30065 | 13490 ft | 259 kts | 234° |
| 2026-05-04 18:58 | 51.31173 | 7.27690 | 13301 ft | 254 kts | 234° |
| 2026-05-04 18:58 | 51.30206 | 7.25378 | 13042 ft | 252 kts | 234° |
| 2026-05-04 18:58 | 51.29229 | 7.23054 | 12765 ft | 251 kts | 234° |
| 2026-05-04 18:59 | 51.28257 | 7.20744 | 12487 ft | 250 kts | 234° |
| 2026-05-04 18:59 | 51.27297 | 7.18454 | 12078 ft | 246 kts | 234° |
| 2026-05-04 18:59 | 51.26426 | 7.16111 | 11580 ft | 247 kts | 248° |
| 2026-05-04 18:59 | 51.26251 | 7.13389 | 11038 ft | 253 kts | 278° |
| 2026-05-04 19:00 | 51.26981 | 7.10821 | 10545 ft | 260 kts | 308° |
| 2026-05-04 19:00 | 51.28368 | 7.08935 | 10086 ft | 265 kts | 320° |
| 2026-05-04 19:00 | 51.29982 | 7.07525 | 9792 ft | 267 kts | 345° |
| 2026-05-04 19:00 | 51.31822 | 7.07482 | 9472 ft | 267 kts | 15° |
| 2026-05-04 19:01 | 51.33418 | 7.08841 | 9142 ft | 264 kts | 46° |
| 2026-05-04 19:01 | 51.34570 | 7.11100 | 8763 ft | 263 kts | 56° |
| 2026-05-04 19:01 | 51.35666 | 7.13448 | 8419 ft | 263 kts | 55° |
| 2026-05-04 19:01 | 51.36752 | 7.15778 | 8168 ft | 258 kts | 54° |
| 2026-05-04 19:02 | 51.37822 | 7.18067 | 7877 ft | 255 kts | 54° |
| 2026-05-04 19:02 | 51.38885 | 7.20337 | 7513 ft | 256 kts | 54° |
| 2026-05-04 19:02 | 51.40010 | 7.22566 | 7120 ft | 258 kts | 41° |
| 2026-05-04 19:02 | 51.41549 | 7.23891 | 6806 ft | 255 kts | 10° |
| 2026-05-04 19:03 | 51.43283 | 7.23847 | 6476 ft | 249 kts | 342° |
| 2026-05-04 19:03 | 51.44764 | 7.22586 | 6126 ft | 239 kts | 310° |
| 2026-05-04 19:03 | 51.45568 | 7.20366 | 5772 ft | 229 kts | 279° |
| 2026-05-04 19:03 | 51.45665 | 7.17829 | 5426 ft | 226 kts | 265° |
| 2026-05-04 19:04 | 51.45591 | 7.15375 | 5288 ft | 216 kts | 263° |
| 2026-05-04 19:04 | 51.45498 | 7.12926 | 4810 ft | 223 kts | 263° |
| 2026-05-04 19:04 | 51.45153 | 7.10533 | 4460 ft | 220 kts | 242° |
| 2026-05-04 19:04 | 51.44297 | 7.08521 | 4117 ft | 219 kts | 231° |
| 2026-05-04 19:05 | 51.43392 | 7.06604 | 3945 ft | 209 kts | 231° |
| 2026-05-04 19:05 | 51.42547 | 7.04808 | 3814 ft | 195 kts | 231° |
| 2026-05-04 19:05 | 51.41756 | 7.03129 | 3639 ft | 187 kts | 231° |
| 2026-05-04 19:05 | 51.40996 | 7.01515 | 3542 ft | 176 kts | 231° |
| 2026-05-04 19:06 | 51.40263 | 6.99963 | 3315 ft | 173 kts | 231° |
| 2026-05-04 19:06 | 51.39538 | 6.98426 | 3073 ft | 173 kts | 231° |
| 2026-05-04 19:06 | 51.38812 | 6.96890 | 2996 ft | 174 kts | 231° |
| 2026-05-04 19:06 | 51.38083 | 6.95347 | 2863 ft | 173 kts | 231° |
| 2026-05-04 19:07 | 51.37355 | 6.93807 | 2645 ft | 173 kts | 231° |
| 2026-05-04 19:07 | 51.36631 | 6.92275 | 2425 ft | 171 kts | 232° |
| 2026-05-04 19:07 | 51.35921 | 6.90778 | 2192 ft | 171 kts | 231° |
| 2026-05-04 19:07 | 51.35208 | 6.89270 | 1956 ft | 170 kts | 231° |
| 2026-05-04 19:08 | 51.34488 | 6.87752 | 1733 ft | 171 kts | 230° |
| 2026-05-04 19:08 | 51.33780 | 6.86258 | 1496 ft | 163 kts | 230° |
| 2026-05-04 19:08 | 51.33132 | 6.84889 | 1291 ft | 147 kts | 230° |
| 2026-05-04 19:08 | 51.32534 | 6.83632 | 1091 ft | 139 kts | 229° |
| 2026-05-04 19:09 | 51.31963 | 6.82416 | 911 ft | 136 kts | 230° |
| 2026-05-04 19:09 | 51.31583 | 6.81611 | 783 ft | 137 kts | 229° |
| 2026-05-04 19:09 | 51.31020 | 6.80420 | 589 ft | 131 kts | 228° |
| 2026-05-04 19:09 | 51.30468 | 6.79265 | 432 ft | 131 kts | 229° |
| 2026-05-04 19:10 | 51.29914 | 6.78110 | 252 ft | 130 kts | 227° |
| 2026-05-04 19:10 | 51.29551 | 6.77351 | 139 ft | 126 kts | 229° |
| 2026-05-04 19:10 | 51.28999 | 6.76192 | 126 ft | 66 kts | 232° |
| 2026-05-04 19:10 | 51.28798 | 6.75802 | 127 ft | 33 kts | 221° |
| 2026-05-04 19:11 | 51.28618 | 6.75682 | 122 ft | 21 kts | 182° |
| 2026-05-04 19:11 | 51.28537 | 6.75702 | 123 ft | 9 kts | 161° |
| 2026-05-04 19:11 | 51.28506 | 6.75726 | 124 ft | 0 kts | 150° |
| 2026-05-04 19:13 | 51.28490 | 6.75742 | 120 ft | 4 kts | 145° |
| 2026-05-04 19:14 | 51.28472 | 6.75763 | 123 ft | 3 kts | 143° |
| 2026-05-04 19:14 | 51.28456 | 6.75783 | 122 ft | 3 kts | 143° |
| 2026-05-04 19:14 | 51.28441 | 6.75801 | 122 ft | 0 kts | 143° |
| 2026-05-04 19:15 | 51.28437 | 6.75806 | 121 ft | 5 kts | 143° |
| 2026-05-04 19:16 | 51.28376 | 6.75880 | 125 ft | 16 kts | 143° |
| 2026-05-04 19:16 | 51.28288 | 6.75987 | 127 ft | 11 kts | 147° |
| 2026-05-04 19:16 | 51.28212 | 6.75963 | 127 ft | 13 kts | 205° |
| 2026-05-04 19:16 | 51.28151 | 6.75917 | 124 ft | 6 kts | 205° |
| 2026-05-04 19:17 | 51.28142 | 6.75910 | 128 ft | 0 kts | 205° |
| 2026-05-04 19:18 | 51.28119 | 6.75894 | 126 ft | 6 kts | 204° |
| 2026-05-04 19:18 | 51.28069 | 6.75858 | 127 ft | 12 kts | 204° |
| 2026-05-04 19:19 | 51.27992 | 6.75822 | 129 ft | 12 kts | 181° |
| 2026-05-04 19:19 | 51.27909 | 6.75818 | 129 ft | 13 kts | 181° |
| 2026-05-04 19:19 | 51.27832 | 6.75815 | 125 ft | 11 kts | 181° |
| 2026-05-04 19:19 | 51.27764 | 6.75812 | 129 ft | 7 kts | 181° |
| 2026-05-04 19:20 | 51.27748 | 6.75849 | 130 ft | 4 kts | 90° |
| 2026-05-04 19:20 | 51.27748 | 6.75896 | 130 ft | 3 kts | 91° |
| 2026-05-04 19:20 | 51.27748 | 6.75913 | 130 ft | 1 kts | 91° |
| 2026-05-04 19:20 | 51.27748 | 6.75918 | 130 ft | 0 kts | 91° |